createdAt,value
2019-02-18T00:00:44.418Z,122.30
2019-02-18T00:03:14.941Z,112.55
2019-02-18T00:05:45.475Z,121.00
2019-02-18T00:08:16.111Z,115.80
2019-02-18T00:10:46.633Z,112.12
2019-02-18T00:13:17.371Z,112.20
2019-02-18T00:15:49.491Z,109.27
2019-02-18T00:18:20.031Z,104.60
2019-02-18T00:20:50.597Z,108.70
2019-02-18T00:23:21.126Z,106.22
2019-02-18T00:25:51.660Z,109.85
2019-02-18T00:28:22.196Z,106.35
2019-02-18T00:30:52.718Z,108.12
2019-02-18T00:33:23.249Z,112.77
2019-02-18T00:35:53.778Z,110.70
2019-02-18T00:38:24.211Z,113.57
2019-02-18T00:40:54.747Z,112.28
2019-02-18T00:43:25.173Z,117.47
2019-02-18T00:45:55.706Z,109.47
2019-02-18T00:48:26.238Z,120.37
2019-02-18T00:50:56.769Z,114.23
2019-02-18T00:53:27.297Z,111.12
2019-02-18T00:55:57.707Z,112.30
2019-02-18T00:58:28.147Z,99.47
2019-02-18T01:00:58.682Z,103.63
2019-02-18T01:03:29.110Z,96.90
2019-02-18T01:05:59.529Z,91.85
2019-02-18T01:08:29.964Z,79.07
2019-02-18T01:11:00.466Z,84.47
2019-02-18T01:13:30.925Z,89.30
2019-02-18T01:16:01.350Z,78.83
2019-02-18T01:18:31.878Z,81.27
2019-02-18T01:21:04.053Z,86.00
2019-02-18T01:23:36.218Z,83.70
2019-02-18T01:26:08.186Z,87.53
2019-02-18T01:28:40.120Z,87.37
2019-02-18T01:31:12.111Z,86.97
2019-02-18T01:33:44.078Z,81.10
2019-02-18T01:36:16.146Z,78.02
2019-02-18T01:38:46.983Z,80.00
2019-02-18T01:41:17.572Z,84.58
2019-02-18T01:43:48.049Z,82.50
2019-02-18T01:46:19.693Z,82.17
2019-02-18T01:48:50.124Z,85.38
2019-02-18T01:51:20.559Z,81.63
2019-02-18T01:53:50.977Z,79.87
2019-02-18T01:56:21.411Z,76.85
2019-02-18T01:58:51.841Z,78.37
2019-02-18T02:01:22.260Z,82.12
2019-02-18T02:03:52.664Z,81.63
2019-02-18T02:06:23.226Z,78.12
2019-02-18T02:08:53.658Z,81.47
2019-02-18T02:11:24.097Z,78.42
2019-02-18T02:13:54.511Z,85.30
2019-02-18T02:16:24.943Z,80.38
2019-02-18T02:18:55.397Z,81.73
2019-02-18T02:21:25.852Z,80.55
2019-02-18T02:23:56.325Z,79.20
2019-02-18T02:26:26.733Z,79.57
2019-02-18T02:28:57.177Z,79.17
2019-02-18T02:31:27.609Z,80.30
2019-02-18T02:33:58.075Z,79.77
2019-02-18T02:36:28.600Z,82.93
2019-02-18T02:38:59.106Z,88.33
2019-02-18T02:41:29.522Z,82.43
2019-02-18T02:43:59.958Z,81.20
2019-02-18T02:46:30.387Z,82.42
2019-02-18T02:49:00.796Z,84.17
2019-02-18T02:51:31.238Z,88.55
2019-02-18T02:54:01.673Z,85.70
2019-02-18T02:56:32.092Z,83.03
2019-02-18T02:59:02.533Z,82.43
2019-02-18T03:01:32.962Z,81.67
2019-02-18T03:04:03.489Z,80.43
2019-02-18T03:06:33.898Z,79.13
2019-02-18T03:12:05.494Z,81.50
2019-02-18T03:14:35.916Z,83.03
2019-02-18T03:17:06.344Z,81.10
2019-02-18T03:19:36.744Z,79.65
2019-02-18T03:22:07.197Z,84.63
2019-02-18T03:24:37.628Z,80.43
2019-02-18T03:27:08.060Z,82.73
2019-02-18T03:29:58.106Z,82.77
2019-02-18T03:32:28.948Z,79.30
2019-02-18T03:35:00.641Z,87.40
2019-02-18T03:37:31.583Z,82.25
2019-02-18T03:40:02.019Z,87.00
2019-02-18T03:42:32.638Z,86.80
2019-02-18T03:45:03.169Z,86.03
2019-02-18T03:47:33.602Z,88.13
2019-02-18T03:50:04.441Z,114.33
2019-02-18T03:52:34.843Z,98.57
2019-02-18T03:55:08.861Z,106.60
2019-02-18T03:57:39.314Z,100.33
2019-02-18T04:00:12.333Z,106.13
2019-02-18T04:02:42.835Z,110.03
2019-02-18T04:05:13.366Z,113.17
2019-02-18T04:07:43.893Z,118.67
2019-02-18T04:10:14.426Z,103.13
2019-02-18T04:12:44.848Z,109.50
2019-02-18T04:15:17.079Z,109.77
2019-02-18T04:17:47.554Z,92.00
2019-02-18T04:20:17.973Z,104.93
2019-02-18T04:22:48.506Z,103.83
2019-02-18T04:25:18.935Z,95.35
2019-02-18T04:27:49.462Z,98.17
2019-02-18T04:30:19.901Z,93.42
2019-02-18T04:32:50.429Z,80.73
2019-02-18T04:35:20.847Z,91.13
2019-02-18T04:37:51.281Z,80.80
2019-02-18T04:40:21.714Z,91.80
2019-02-18T04:42:52.131Z,100.30
2019-02-18T04:45:22.565Z,104.97
2019-02-18T04:47:52.996Z,89.70
2019-02-18T04:50:23.624Z,91.10
2019-02-18T04:52:54.069Z,93.78
2019-02-18T04:55:24.588Z,90.40
2019-02-18T04:57:55.120Z,85.83
2019-02-18T05:00:25.540Z,87.60
2019-02-18T05:02:55.973Z,88.50
2019-02-18T05:05:26.402Z,80.53
2019-02-18T05:07:56.799Z,95.20
2019-02-18T05:10:27.257Z,104.05
2019-02-18T05:12:57.688Z,80.10
2019-02-18T05:15:28.091Z,74.60
2019-02-18T05:17:58.547Z,81.35
2019-02-18T05:20:28.975Z,125.25
2019-02-18T05:22:59.393Z,98.20
2019-02-18T05:25:29.830Z,84.75
2019-02-18T05:28:00.358Z,80.07
2019-02-18T05:30:30.747Z,85.63
2019-02-18T05:33:01.236Z,85.47
2019-02-18T05:35:31.740Z,84.80
2019-02-18T05:38:02.177Z,83.30
2019-02-18T05:40:32.610Z,85.47
2019-02-18T05:43:03.146Z,80.87
2019-02-18T05:45:33.542Z,85.50
2019-02-18T05:48:03.992Z,83.07
2019-02-18T05:50:35.446Z,83.03
2019-02-18T05:53:05.879Z,79.57
2019-02-18T05:55:36.294Z,78.33
2019-02-18T05:58:06.734Z,89.07
2019-02-18T06:00:37.116Z,86.80
2019-02-18T06:03:07.690Z,118.77
2019-02-18T06:05:38.224Z,145.95
2019-02-18T06:08:08.727Z,109.07
2019-02-18T06:10:39.148Z,149.93
2019-02-18T06:13:09.552Z,112.67
2019-02-18T06:15:39.997Z,102.00
2019-02-18T06:18:10.457Z,101.75
2019-02-18T06:20:40.987Z,145.43
2019-02-18T06:23:11.418Z,142.53
2019-02-18T06:25:41.948Z,104.03
2019-02-18T06:28:12.480Z,94.57
2019-02-18T06:30:42.920Z,85.15
2019-02-18T06:33:13.445Z,108.23
2019-02-18T06:35:43.862Z,107.00
2019-02-18T06:38:14.511Z,110.23
2019-02-18T06:40:45.034Z,113.10
2019-02-18T06:43:15.564Z,113.20
2019-02-18T06:45:51.825Z,110.57
2019-02-18T06:48:23.962Z,111.63
2019-02-18T06:50:54.530Z,106.77
2019-02-18T06:53:24.943Z,104.27
2019-02-18T06:55:55.349Z,110.63
2019-02-18T06:58:27.466Z,113.88
2019-02-18T07:01:02.236Z,94.27
2019-02-18T07:03:37.253Z,98.80
2019-02-18T07:06:09.384Z,95.70
2019-02-18T07:08:50.703Z,90.30
2019-02-18T07:11:22.833Z,85.17
2019-02-18T07:13:53.363Z,110.17
2019-02-18T07:16:23.763Z,87.60
2019-02-18T07:18:54.215Z,78.15
2019-02-18T07:21:24.645Z,75.50
2019-02-18T07:23:55.080Z,73.85
2019-02-18T07:26:25.468Z,72.25
2019-02-18T07:28:55.877Z,73.37
2019-02-18T07:31:26.280Z,78.90
2019-02-18T07:33:56.786Z,72.58
2019-02-18T07:36:27.214Z,76.75
2019-02-18T07:38:57.625Z,79.05
2019-02-18T07:41:28.177Z,75.40
2019-02-18T07:43:58.714Z,73.60
2019-02-18T07:46:29.127Z,75.62
2019-02-18T07:48:59.584Z,84.40
2019-02-18T07:51:29.993Z,86.20
2019-02-18T07:54:00.494Z,88.97
2019-02-18T07:56:31.051Z,86.75
2019-02-18T07:59:01.583Z,88.90
2019-02-18T08:01:32.085Z,91.15
2019-02-18T08:04:02.483Z,85.92
2019-02-18T08:06:32.965Z,88.15
2019-02-18T08:09:05.239Z,88.07
2019-02-18T08:11:35.687Z,84.50
2019-02-18T08:14:07.485Z,84.20
2019-02-18T08:16:38.018Z,79.82
2019-02-18T08:19:08.523Z,80.70
2019-02-18T08:21:38.929Z,79.20
2019-02-18T08:24:10.336Z,91.45
2019-02-18T08:26:40.816Z,112.40
2019-02-18T08:29:11.283Z,108.27
2019-02-18T08:31:41.814Z,82.45
2019-02-18T08:34:12.218Z,96.70
2019-02-18T08:36:42.621Z,78.67
2019-02-18T08:39:13.006Z,70.30
2019-02-18T08:41:43.532Z,70.67
2019-02-18T08:44:14.181Z,86.40
2019-02-18T08:46:44.693Z,72.42
2019-02-18T08:49:15.096Z,98.47
2019-02-18T08:51:45.575Z,124.18
2019-02-18T08:54:17.042Z,91.67
2019-02-18T08:56:47.574Z,86.20
2019-02-18T08:59:19.494Z,79.62
2019-02-18T09:01:50.037Z,77.80
2019-02-18T09:04:20.441Z,66.53
2019-02-18T09:06:50.854Z,58.87
2019-02-18T09:09:21.416Z,60.90
2019-02-18T09:11:51.837Z,58.35
2019-02-18T09:14:22.368Z,58.63
2019-02-18T09:16:52.899Z,62.50
2019-02-18T09:19:23.333Z,59.48
2019-02-18T09:21:55.397Z,61.50
2019-02-18T09:24:27.463Z,80.47
2019-02-18T09:26:57.857Z,81.60
2019-02-18T09:29:28.319Z,75.55
2019-02-18T09:31:58.849Z,85.90
2019-02-18T09:34:29.255Z,62.70
2019-02-18T09:36:59.661Z,69.07
2019-02-18T09:39:31.510Z,66.77
2019-02-18T09:42:02.152Z,64.60
2019-02-18T09:44:32.663Z,56.98
2019-02-18T09:47:03.098Z,53.28
2019-02-18T09:49:33.586Z,52.62
2019-02-18T09:52:03.994Z,54.75
2019-02-18T09:54:34.481Z,53.65
2019-02-18T09:57:04.883Z,55.88
2019-02-18T09:59:35.622Z,52.60
2019-02-18T10:02:06.062Z,53.10
2019-02-18T10:04:36.486Z,52.00
2019-02-18T10:07:07.063Z,47.85
2019-02-18T10:09:37.458Z,47.50
2019-02-18T10:12:17.755Z,46.37
2019-02-18T10:14:40.087Z,46.33
2019-02-18T10:17:10.492Z,45.30
2019-02-18T10:19:42.995Z,45.73
2019-02-18T10:22:13.260Z,44.80
2019-02-18T10:24:50.643Z,41.68
2019-02-18T10:27:16.735Z,44.33
2019-02-18T10:29:47.133Z,40.80
2019-02-18T10:32:17.628Z,42.40
2019-02-18T10:34:48.028Z,40.50
2019-02-18T10:37:18.433Z,37.83
2019-02-18T10:39:48.850Z,39.53
2019-02-18T10:42:19.346Z,37.38
2019-02-18T10:44:49.777Z,36.35
2019-02-18T10:47:20.618Z,36.25
2019-02-18T10:49:51.035Z,37.67
2019-02-18T10:52:22.604Z,37.15
2019-02-18T10:54:53.047Z,39.38
2019-02-18T10:57:23.550Z,36.65
2019-02-18T10:59:54.497Z,38.08
2019-02-18T11:02:24.919Z,34.35
2019-02-18T11:04:55.454Z,34.40
2019-02-18T11:07:26.186Z,34.63
2019-02-18T11:09:56.588Z,38.90
2019-02-18T11:12:27.040Z,31.97
2019-02-18T11:14:57.439Z,33.48
2019-02-18T11:17:27.904Z,38.67
2019-02-18T11:19:58.333Z,29.25
2019-02-18T11:22:28.725Z,32.05
2019-02-18T11:24:59.187Z,33.42
2019-02-18T11:27:29.719Z,25.60
2019-02-18T11:30:00.335Z,30.68
2019-02-18T11:32:30.880Z,30.75
2019-02-18T11:35:01.319Z,27.22
2019-02-18T11:37:33.558Z,26.77
2019-02-18T11:40:06.548Z,25.37
2019-02-18T11:42:37.617Z,28.42
2019-02-18T11:45:10.953Z,28.85
2019-02-18T11:47:41.441Z,29.60
2019-02-18T11:50:13.433Z,37.58
2019-02-18T11:52:43.873Z,31.73
2019-02-18T11:55:14.777Z,29.42
2019-02-18T11:57:45.610Z,28.12
2019-02-18T12:00:17.119Z,26.60
2019-02-18T12:02:47.987Z,30.32
2019-02-18T12:05:18.385Z,26.07
2019-02-18T12:07:48.964Z,30.65
2019-02-18T12:10:19.359Z,32.17
2019-02-18T12:12:49.811Z,28.52
2019-02-18T12:15:21.364Z,28.80
2019-02-18T12:17:52.004Z,27.40
2019-02-18T12:20:23.754Z,28.12
2019-02-18T12:22:54.226Z,26.23
2019-02-18T12:25:25.008Z,24.67
2019-02-18T12:27:56.891Z,23.92
2019-02-18T12:30:28.368Z,22.67
2019-02-18T12:32:58.875Z,23.70
2019-02-18T12:35:31.546Z,24.30
2019-02-18T12:38:01.473Z,23.77
2019-02-18T12:40:31.895Z,25.85
2019-02-18T12:43:02.302Z,23.83
2019-02-18T12:45:32.761Z,23.95
2019-02-18T12:48:03.175Z,23.30
2019-02-18T12:50:33.574Z,21.23
2019-02-18T12:53:04.545Z,24.27
2019-02-18T12:55:36.209Z,25.55
2019-02-18T12:58:06.835Z,26.70
2019-02-18T13:00:37.237Z,25.55
2019-02-18T13:03:07.700Z,27.02
2019-02-18T13:05:38.232Z,28.65
2019-02-18T13:08:08.956Z,27.82
2019-02-18T13:10:39.488Z,23.47
2019-02-18T13:13:10.027Z,25.20
2019-02-18T13:15:40.425Z,24.25
2019-02-18T13:18:10.839Z,23.32
2019-02-18T13:20:41.268Z,21.68
2019-02-18T13:23:12.142Z,22.80
2019-02-18T13:25:47.486Z,22.13
2019-02-18T13:28:14.848Z,23.50
2019-02-18T13:30:45.379Z,24.12
2019-02-18T13:33:15.799Z,25.50
2019-02-18T13:35:46.196Z,29.20
2019-02-18T13:38:17.571Z,27.35
2019-02-18T13:40:47.966Z,25.30
2019-02-18T13:43:18.394Z,27.67
2019-02-18T13:45:48.870Z,26.57
2019-02-18T13:48:19.269Z,26.52
2019-02-18T13:50:49.948Z,25.50
2019-02-18T13:53:20.463Z,25.08
2019-02-18T13:55:52.114Z,25.60
2019-02-18T13:58:22.597Z,26.10
2019-02-18T14:00:53.124Z,24.65
2019-02-18T14:03:23.556Z,25.05
2019-02-18T14:05:54.074Z,25.25
2019-02-18T14:08:24.491Z,27.70
2019-02-18T14:10:54.962Z,50.30
2019-02-18T14:13:26.352Z,37.13
2019-02-18T14:15:56.811Z,28.17
2019-02-18T14:18:27.220Z,28.42
2019-02-18T14:20:57.642Z,24.47
2019-02-18T14:23:28.092Z,25.35
2019-02-18T14:25:58.624Z,23.55
2019-02-18T14:28:29.901Z,22.75
2019-02-18T14:31:00.633Z,25.25
2019-02-18T14:33:31.027Z,24.25
2019-02-18T14:36:01.423Z,24.92
2019-02-18T14:38:31.834Z,28.45
2019-02-18T14:41:02.246Z,26.05
2019-02-18T14:43:32.656Z,24.77
2019-02-18T14:46:03.051Z,25.57
2019-02-18T14:48:33.444Z,26.48
2019-02-18T14:51:03.846Z,26.12
2019-02-18T14:53:34.350Z,27.85
2019-02-18T14:56:07.419Z,29.90
2019-02-18T14:58:37.832Z,33.75
2019-02-18T15:01:08.446Z,28.57
2019-02-18T15:03:39.003Z,36.42
2019-02-18T15:06:09.409Z,45.48
2019-02-18T15:08:39.897Z,38.13
2019-02-18T15:11:10.669Z,40.08
2019-02-18T15:13:41.165Z,31.87
2019-02-18T15:16:11.583Z,32.70
2019-02-18T15:18:42.004Z,30.75
2019-02-18T15:21:12.544Z,29.82
2019-02-18T15:23:42.978Z,29.65
2019-02-18T15:26:13.387Z,27.48
2019-02-18T15:28:43.790Z,28.42
2019-02-18T15:31:14.191Z,26.90
2019-02-18T15:33:44.594Z,28.10
2019-02-18T15:36:15.071Z,28.92
2019-02-18T15:38:45.857Z,29.75
2019-02-18T15:41:16.300Z,30.48
2019-02-18T15:43:46.681Z,32.13
2019-02-18T15:46:17.095Z,32.30
2019-02-18T15:48:47.502Z,32.17
2019-02-18T15:51:17.902Z,33.00
2019-02-18T15:53:48.313Z,31.70
2019-02-18T15:56:18.990Z,39.33
2019-02-18T15:58:49.392Z,35.73
2019-02-18T16:01:19.793Z,33.05
2019-02-18T16:03:50.199Z,29.67
2019-02-18T16:06:20.594Z,30.32
2019-02-18T16:08:51.051Z,28.87
2019-02-18T16:11:21.459Z,28.67
2019-02-18T16:13:51.923Z,29.65
2019-02-18T16:16:22.315Z,28.80
2019-02-18T16:18:53.435Z,29.57
2019-02-18T16:21:23.836Z,32.65
2019-02-18T16:23:54.305Z,31.23
2019-02-18T16:26:24.708Z,31.30
2019-02-18T16:28:55.271Z,35.65
2019-02-18T16:31:25.771Z,42.48
2019-02-18T16:33:56.219Z,56.30
2019-02-18T16:36:26.628Z,49.18
2019-02-18T16:38:57.459Z,46.88
2019-02-18T16:41:27.886Z,42.67
2019-02-18T16:43:58.291Z,44.25
2019-02-18T16:46:29.238Z,51.48
2019-02-18T16:48:59.945Z,79.10
2019-02-18T16:51:31.878Z,94.17
2019-02-18T16:54:02.270Z,88.45
2019-02-18T16:56:32.677Z,81.53
2019-02-18T16:59:03.549Z,87.62
2019-02-18T17:01:33.943Z,192.98
2019-02-18T17:04:04.358Z,104.00
2019-02-18T17:06:34.768Z,110.85
2019-02-18T17:09:08.535Z,104.95
2019-02-18T17:11:39.128Z,112.32
2019-02-18T17:14:09.540Z,202.65
2019-02-18T17:16:39.946Z,185.93
2019-02-18T17:19:10.466Z,156.90
2019-02-18T17:21:40.948Z,154.68
2019-02-18T17:24:11.357Z,199.15
2019-02-18T17:26:41.970Z,183.52
2019-02-18T17:29:12.376Z,193.17
2019-02-18T17:31:42.793Z,160.43
2019-02-18T17:34:13.214Z,177.93
2019-02-18T17:36:43.632Z,166.80
2019-02-18T17:39:14.032Z,160.80
2019-02-18T17:41:44.517Z,167.18
2019-02-18T17:44:20.184Z,204.15
2019-02-18T17:46:47.223Z,209.52
2019-02-18T17:49:17.624Z,206.50
2019-02-18T17:51:48.032Z,181.67
2019-02-18T17:54:18.529Z,186.07
2019-02-18T17:56:48.925Z,189.97
2019-02-18T17:59:19.356Z,188.15
2019-02-18T18:01:49.766Z,209.57
2019-02-18T18:04:20.171Z,192.60
2019-02-18T18:06:51.047Z,196.18
2019-02-18T18:09:21.443Z,179.95
2019-02-18T18:11:51.874Z,189.45
2019-02-18T18:14:22.337Z,203.67
2019-02-18T18:16:52.734Z,204.45
2019-02-18T18:19:23.137Z,189.10
2019-02-18T18:21:53.657Z,161.12
2019-02-18T18:24:24.056Z,206.13
2019-02-18T18:26:54.465Z,204.47
2019-02-18T18:29:24.862Z,201.22
2019-02-18T18:31:55.338Z,189.45
2019-02-18T18:34:26.134Z,191.05
2019-02-18T18:36:56.605Z,194.40
2019-02-18T18:39:27.140Z,187.07
2019-02-18T18:41:57.671Z,209.55
2019-02-18T18:44:28.196Z,208.70
2019-02-18T18:46:58.685Z,182.43
2019-02-18T18:49:29.153Z,178.85
2019-02-18T18:51:59.736Z,170.77
2019-02-18T18:54:30.223Z,174.87
2019-02-18T18:57:00.625Z,171.25
2019-02-18T18:59:31.041Z,198.17
2019-02-18T19:02:01.456Z,172.40
2019-02-18T19:04:31.874Z,159.70
2019-02-18T19:07:02.353Z,161.80
2019-02-18T19:09:32.766Z,146.45
2019-02-18T19:12:03.178Z,130.00
2019-02-18T19:14:33.763Z,120.67
2019-02-18T19:17:04.175Z,115.10
2019-02-18T19:19:34.709Z,126.53
2019-02-18T19:22:05.236Z,139.25
2019-02-18T19:24:35.660Z,149.80
2019-02-18T19:27:06.495Z,138.37
2019-02-18T19:29:36.924Z,143.30
2019-02-18T19:32:07.334Z,148.30
2019-02-18T19:34:37.888Z,135.72
2019-02-18T19:37:08.339Z,146.43
2019-02-18T19:39:40.279Z,152.53
2019-02-18T19:42:10.694Z,164.55
2019-02-18T19:44:41.102Z,187.47
2019-02-18T19:47:11.508Z,175.42
2019-02-18T19:49:41.907Z,164.90
